createdAt,value
2017-06-14T00:07:19.988Z,48.60
2017-06-14T00:09:50.007Z,48.40
2017-06-14T00:12:20.911Z,48.50
2017-06-14T00:14:53.062Z,48.50
2017-06-14T00:19:55.484Z,48.70
2017-06-14T00:22:23.596Z,48.50
2017-06-14T00:24:53.560Z,48.70
2017-06-14T00:27:25.324Z,48.90
2017-06-14T00:29:55.313Z,49.00
2017-06-14T00:32:26.991Z,49.10
2017-06-14T00:34:53.319Z,49.20
2017-06-14T00:37:20.426Z,49.60
2017-06-14T00:39:49.832Z,49.50
2017-06-14T00:42:19.210Z,49.50
2017-06-14T00:44:46.315Z,49.60
2017-06-14T00:47:17.726Z,49.70
2017-06-14T00:49:48.856Z,50.40
2017-06-14T00:52:21.520Z,49.80
2017-06-14T01:04:57.798Z,50.60
2017-06-14T01:07:34.588Z,51.00
2017-06-14T01:10:02.404Z,51.10
2017-06-14T01:15:00.419Z,51.40
2017-06-14T01:19:59.743Z,51.70
2017-06-14T01:22:25.946Z,51.50
2017-06-14T01:24:54.258Z,51.60
2017-06-14T01:27:21.672Z,51.80
2017-06-14T01:32:22.445Z,51.90
2017-06-14T01:34:50.181Z,51.90
2017-06-14T01:37:16.823Z,51.80
2017-06-14T01:39:45.951Z,51.80
2017-06-14T01:42:12.860Z,51.50
2017-06-14T01:44:39.395Z,52.00
2017-06-14T01:47:06.047Z,51.90
2017-06-14T01:49:33.748Z,52.00
2017-06-14T01:57:14.418Z,52.20
2017-06-14T02:04:56.203Z,52.50
2017-06-14T02:07:23.607Z,52.50
2017-06-14T02:12:26.128Z,53.00
2017-06-14T02:14:54.228Z,53.30
2017-06-14T02:17:21.931Z,53.50
2017-06-14T02:19:50.204Z,53.90
2017-06-14T02:22:17.461Z,53.80
2017-06-14T02:24:44.773Z,53.50
2017-06-14T02:27:12.148Z,53.60
2017-06-14T02:29:38.392Z,53.80
2017-06-14T02:32:04.832Z,53.60
2017-06-14T02:34:33.817Z,53.90
2017-06-14T02:37:05.879Z,53.90
2017-06-14T02:39:39.328Z,54.10
2017-06-14T02:42:05.980Z,54.00
2017-06-14T02:44:35.058Z,54.50
2017-06-14T02:47:02.669Z,53.70
2017-06-14T02:49:31.666Z,54.00
2017-06-14T02:51:58.181Z,54.20
2017-06-14T02:54:25.239Z,54.00
2017-06-14T02:56:52.424Z,54.20
2017-06-14T02:59:19.541Z,54.40
2017-06-14T03:01:47.820Z,54.40
2017-06-14T03:04:17.444Z,54.50
2017-06-14T03:06:44.639Z,54.60
2017-06-14T03:09:12.555Z,54.70
2017-06-14T03:15:00.671Z,54.40
2017-06-14T03:17:27.810Z,54.70
2017-06-14T03:19:56.234Z,54.80
2017-06-14T03:22:24.983Z,55.10
2017-06-14T03:25:00.077Z,55.00
2017-06-14T03:27:31.776Z,55.10
2017-06-14T03:29:59.738Z,55.00
2017-06-14T03:32:29.286Z,55.00
2017-06-14T03:34:59.055Z,55.20
2017-06-14T03:37:25.462Z,55.30
2017-06-14T03:39:52.786Z,55.00
2017-06-14T03:44:53.328Z,55.50
2017-06-14T03:47:20.502Z,55.50
2017-06-14T03:49:48.499Z,55.40
2017-06-14T03:54:50.099Z,55.10
2017-06-14T03:57:18.771Z,55.60
2017-06-14T04:02:18.134Z,55.30
2017-06-14T04:04:52.508Z,55.30
2017-06-14T04:18:34.713Z,55.50
2017-06-14T04:24:01.924Z,55.50
2017-06-14T04:32:17.137Z,55.30
2017-06-14T04:46:14.843Z,55.40
2017-06-14T04:48:41.880Z,55.40
2017-06-14T04:51:09.108Z,55.50
2017-06-14T04:53:40.503Z,55.10
2017-06-14T04:56:16.162Z,55.40
2017-06-14T04:58:49.150Z,55.30
2017-06-14T05:09:38.777Z,55.00
2017-06-14T05:12:08.909Z,54.90
2017-06-14T05:14:41.004Z,55.10
2017-06-14T05:17:11.494Z,54.80
2017-06-14T05:22:11.457Z,54.50
2017-06-14T05:24:39.567Z,54.60
2017-06-14T05:27:07.018Z,54.70
2017-06-14T05:29:34.425Z,54.80
2017-06-14T05:32:03.078Z,54.80
2017-06-14T05:37:34.401Z,54.90
2017-06-14T05:42:32.874Z,54.90
2017-06-14T05:47:32.697Z,55.00
2017-06-14T05:50:05.767Z,55.00
2017-06-14T05:55:22.174Z,54.90
2017-06-14T06:08:54.862Z,54.50
2017-06-14T06:11:32.092Z,54.60
2017-06-14T06:30:10.120Z,54.00
2017-06-14T06:43:37.651Z,53.50
2017-06-14T06:46:04.683Z,53.30
2017-06-14T06:48:35.013Z,53.10
2017-06-14T06:51:05.450Z,53.00
2017-06-14T06:53:33.297Z,53.00
2017-06-14T06:56:01.984Z,52.70
2017-06-14T06:58:33.029Z,52.70
2017-06-14T07:01:04.263Z,52.70
2017-06-14T07:03:32.072Z,52.60
2017-06-14T07:11:00.025Z,52.10
2017-06-14T07:13:26.938Z,51.80
2017-06-14T07:18:30.681Z,51.80
2017-06-14T07:21:01.711Z,51.90
2017-06-14T07:26:04.584Z,51.70
2017-06-14T07:36:05.100Z,51.40
2017-06-14T07:38:36.375Z,51.30
2017-06-14T07:41:04.105Z,51.20
2017-06-14T07:43:31.109Z,50.70
2017-06-14T07:46:00.215Z,50.70
2017-06-14T07:48:26.665Z,50.20
2017-06-14T07:50:53.373Z,49.90
2017-06-14T07:53:23.125Z,49.80
2017-06-14T07:55:49.463Z,49.50
2017-06-14T07:58:18.657Z,49.40
2017-06-14T08:00:47.045Z,49.30
2017-06-14T08:03:14.743Z,48.90
2017-06-14T08:05:42.559Z,48.90
2017-06-14T08:08:10.630Z,48.70
2017-06-14T08:10:39.659Z,48.60
2017-06-14T08:13:08.347Z,48.20
2017-06-14T08:15:34.848Z,48.30
2017-06-14T08:20:35.193Z,48.00
2017-06-14T08:23:03.277Z,47.70
2017-06-14T08:28:02.737Z,47.30
2017-06-14T08:30:29.425Z,47.20
2017-06-14T08:35:28.437Z,46.30
2017-06-14T08:37:55.774Z,46.20
2017-06-14T08:40:26.127Z,46.00
2017-06-14T08:42:53.771Z,45.50
2017-06-14T08:45:23.062Z,45.30
2017-06-14T08:47:53.031Z,44.90
2017-06-14T08:50:20.233Z,44.80
2017-06-14T08:52:48.927Z,45.10
2017-06-14T08:55:18.318Z,45.00
2017-06-14T08:57:50.439Z,44.90
2017-06-14T09:00:20.195Z,44.50
2017-06-14T09:02:50.386Z,44.40
2017-06-14T09:05:17.631Z,44.20
2017-06-14T09:07:45.018Z,44.30
2017-06-14T09:17:51.504Z,43.30
2017-06-14T09:20:20.934Z,43.30
2017-06-14T09:22:50.976Z,43.30
2017-06-14T09:30:23.158Z,42.80
2017-06-14T09:32:51.145Z,42.30
2017-06-14T09:35:18.764Z,42.20
2017-06-14T09:37:49.141Z,41.80
2017-06-14T09:42:48.876Z,41.20
2017-06-14T09:47:47.825Z,41.10
2017-06-14T09:50:15.889Z,41.30
2017-06-14T09:52:42.335Z,40.90
2017-06-14T09:55:08.770Z,41.00
2017-06-14T09:57:36.162Z,41.00
2017-06-14T10:00:03.276Z,40.80
2017-06-14T10:02:30.136Z,40.60
2017-06-14T10:04:57.523Z,40.60
2017-06-14T10:07:25.227Z,40.70
2017-06-14T10:09:52.371Z,40.10
2017-06-14T10:12:18.605Z,40.10
2017-06-14T10:14:45.637Z,40.00
2017-06-14T10:17:13.373Z,39.30
2017-06-14T10:19:42.011Z,38.50
2017-06-14T10:22:09.868Z,38.60
2017-06-14T10:24:40.494Z,38.70
2017-06-14T10:27:07.644Z,38.60
2017-06-14T10:29:35.109Z,38.70
2017-06-14T10:32:03.013Z,38.60
2017-06-14T10:34:31.087Z,38.50
2017-06-14T10:36:58.306Z,38.40
2017-06-14T10:39:34.273Z,38.40
2017-06-14T10:44:42.487Z,38.40
2017-06-14T11:03:31.290Z,37.30
2017-06-14T11:08:35.834Z,37.30
2017-06-14T11:31:29.130Z,36.60
2017-06-14T11:36:27.355Z,36.00
2017-06-14T11:41:33.843Z,35.60
2017-06-14T11:44:03.929Z,35.10
2017-06-14T11:55:21.375Z,29.60
2017-06-14T12:00:24.328Z,28.90
2017-06-14T12:02:54.351Z,28.50
2017-06-14T12:05:24.963Z,28.00
2017-06-14T12:10:35.545Z,26.90
2017-06-14T12:13:04.798Z,26.90
2017-06-14T12:15:35.784Z,26.90
2017-06-14T12:18:08.458Z,26.30
2017-06-14T12:20:36.717Z,25.90
2017-06-14T12:23:07.821Z,25.90
2017-06-14T12:25:38.725Z,25.70
2017-06-14T12:28:18.679Z,25.70
2017-06-14T12:30:48.043Z,25.10
2017-06-14T12:33:26.265Z,25.10
2017-06-14T12:38:48.247Z,25.00
2017-06-14T12:41:14.559Z,23.60
2017-06-14T12:46:15.990Z,24.00
2017-06-14T13:06:46.513Z,24.10
2017-06-14T13:11:48.440Z,24.00
2017-06-14T13:34:47.915Z,22.10
2017-06-14T13:50:08.749Z,21.20
2017-06-14T13:55:13.099Z,21.50
2017-06-14T14:00:25.974Z,21.70
2017-06-14T14:03:00.587Z,20.80
2017-06-14T14:05:33.253Z,20.70
2017-06-14T14:10:51.637Z,20.50
2017-06-14T14:13:24.319Z,20.60
2017-06-14T14:29:57.291Z,20.40
2017-06-14T14:32:29.850Z,20.50
2017-06-14T14:38:13.099Z,20.20
2017-06-14T15:05:09.573Z,20.80
2017-06-14T15:24:34.892Z,20.80
2017-06-14T16:12:29.446Z,20.20
2017-06-14T16:15:06.739Z,20.20
2017-06-14T16:20:32.973Z,20.40
2017-06-14T16:34:08.815Z,21.20
2017-06-14T16:39:24.270Z,21.60
2017-06-14T16:47:17.284Z,22.30
2017-06-14T16:49:44.036Z,22.20
2017-06-14T16:52:11.053Z,22.20
2017-06-14T16:54:38.667Z,22.00
2017-06-14T17:00:04.132Z,21.80
2017-06-14T17:02:30.311Z,22.00
2017-06-14T17:05:02.269Z,21.80
2017-06-14T17:07:29.511Z,22.10
2017-06-14T17:23:22.859Z,22.20
2017-06-14T17:25:56.321Z,21.80
2017-06-14T17:28:22.356Z,22.10
2017-06-14T17:30:49.671Z,22.30
2017-06-14T17:33:16.762Z,22.30
2017-06-14T17:35:48.925Z,22.10
2017-06-14T17:38:17.417Z,22.20
2017-06-14T17:40:48.916Z,22.40
2017-06-14T17:45:49.452Z,22.70
2017-06-14T17:48:35.604Z,22.70
2017-06-14T17:53:48.732Z,22.70
2017-06-14T17:56:18.606Z,22.90
2017-06-14T17:58:45.815Z,23.10
2017-06-14T18:09:26.406Z,23.80
2017-06-14T18:11:56.859Z,24.10
2017-06-14T18:14:23.506Z,24.30
2017-06-14T18:16:49.704Z,24.50
2017-06-14T18:19:19.053Z,24.80
2017-06-14T18:21:45.033Z,25.10
2017-06-14T18:24:12.000Z,25.20
2017-06-14T18:26:38.745Z,25.20
2017-06-14T18:29:04.697Z,25.20
2017-06-14T18:31:31.377Z,25.20
2017-06-14T18:33:57.987Z,25.30
2017-06-14T18:36:25.508Z,25.30
2017-06-14T18:41:26.234Z,25.40
2017-06-14T18:43:53.186Z,25.50
2017-06-14T18:46:19.411Z,25.60
2017-06-14T18:48:45.422Z,25.70
2017-06-14T18:51:11.527Z,25.80
2017-06-14T18:53:37.476Z,25.90
2017-06-14T18:56:04.005Z,26.10
2017-06-14T18:58:30.550Z,26.10
2017-06-14T19:00:58.047Z,26.20
2017-06-14T19:03:25.964Z,26.20
2017-06-14T19:05:52.915Z,26.30
2017-06-14T19:08:19.553Z,26.60
2017-06-14T19:10:46.604Z,26.80
2017-06-14T19:13:14.410Z,27.00
2017-06-14T19:15:42.875Z,27.60
2017-06-14T19:18:09.892Z,28.20
2017-06-14T19:20:37.246Z,28.60
2017-06-14T19:23:13.393Z,29.20
2017-06-14T19:25:47.174Z,29.50
2017-06-14T19:28:16.204Z,30.00
2017-06-14T19:30:43.946Z,30.20
2017-06-14T19:33:10.829Z,30.70
2017-06-14T19:35:39.017Z,31.20
2017-06-14T19:38:08.383Z,31.70
2017-06-14T19:43:13.773Z,32.30
2017-06-14T19:45:43.855Z,32.50
2017-06-14T19:48:11.005Z,33.10
2017-06-14T19:50:39.706Z,33.60
2017-06-14T19:53:06.476Z,33.90
2017-06-14T19:55:32.753Z,34.30
2017-06-14T19:58:00.267Z,34.60
2017-06-14T20:00:33.145Z,34.60
2017-06-14T20:03:00.499Z,35.40
2017-06-14T20:05:31.709Z,35.50
2017-06-14T20:08:01.831Z,35.70
2017-06-14T20:10:29.631Z,35.90
2017-06-14T20:12:55.782Z,36.30
2017-06-14T20:15:23.669Z,36.50
2017-06-14T20:17:50.964Z,36.70
2017-06-14T20:23:01.800Z,37.00
2017-06-14T20:25:32.022Z,37.40
2017-06-14T20:30:38.457Z,37.60
2017-06-14T20:33:14.602Z,37.90
2017-06-14T20:35:43.084Z,38.00
2017-06-14T20:38:11.034Z,38.20
2017-06-14T20:40:42.091Z,38.30
2017-06-14T20:43:08.699Z,38.40
2017-06-14T20:45:39.584Z,38.50
2017-06-14T20:48:06.955Z,38.90
2017-06-14T20:50:35.429Z,39.00
2017-06-14T20:53:09.625Z,39.10
2017-06-14T20:55:36.887Z,39.20
2017-06-14T20:58:05.326Z,39.50
2017-06-14T21:00:33.169Z,39.60
2017-06-14T21:03:01.627Z,39.70
2017-06-14T21:08:16.052Z,39.90
2017-06-14T21:10:50.004Z,40.10
2017-06-14T21:13:16.973Z,40.10
2017-06-14T21:15:45.760Z,40.30
2017-06-14T21:18:14.048Z,40.40
2017-06-14T21:20:45.094Z,40.40
2017-06-14T21:23:13.295Z,40.60
2017-06-14T21:25:39.567Z,40.90
2017-06-14T21:28:05.710Z,40.90
2017-06-14T21:30:34.492Z,41.00
2017-06-14T21:33:00.530Z,41.10
2017-06-14T21:35:26.899Z,41.20
2017-06-14T21:37:57.898Z,41.40
2017-06-14T21:40:26.360Z,41.50
2017-06-14T21:42:53.853Z,41.60
2017-06-14T21:45:21.755Z,41.60
2017-06-14T21:47:51.696Z,41.80
2017-06-14T21:50:20.920Z,41.90
2017-06-14T21:52:49.178Z,42.00
2017-06-14T21:55:16.942Z,42.10
2017-06-14T21:57:44.740Z,42.20
2017-06-14T22:00:11.746Z,42.30
2017-06-14T22:02:37.893Z,42.50
2017-06-14T22:05:05.021Z,42.50
2017-06-14T22:07:31.038Z,42.60
2017-06-14T22:09:57.808Z,42.90
2017-06-14T22:12:25.040Z,43.00
2017-06-14T22:14:52.636Z,43.20
2017-06-14T22:17:22.003Z,43.20
2017-06-14T22:19:48.275Z,44.00
2017-06-14T22:22:14.311Z,43.50
2017-06-14T22:24:40.698Z,43.60
2017-06-14T22:27:07.165Z,43.70
2017-06-14T22:29:34.474Z,43.90
2017-06-14T22:32:00.569Z,44.00
2017-06-14T22:34:27.189Z,44.20
2017-06-14T22:36:54.213Z,44.40
2017-06-14T22:39:21.533Z,44.70
2017-06-14T22:41:51.143Z,44.70
2017-06-14T22:44:18.358Z,44.80
2017-06-14T22:46:44.907Z,44.90
2017-06-14T22:49:10.952Z,45.10
2017-06-14T22:51:38.438Z,45.40
2017-06-14T22:54:04.955Z,45.70
2017-06-14T22:56:31.887Z,45.70
2017-06-14T22:58:59.293Z,45.80
2017-06-14T23:01:27.213Z,45.90
2017-06-14T23:03:59.539Z,46.10
2017-06-14T23:06:26.513Z,46.20
2017-06-14T23:08:52.687Z,46.20
2017-06-14T23:11:20.611Z,46.40
2017-06-14T23:13:47.125Z,46.60
2017-06-14T23:16:14.130Z,46.80
2017-06-14T23:18:42.880Z,46.90
2017-06-14T23:21:11.138Z,46.80
2017-06-14T23:23:37.974Z,47.10
2017-06-14T23:26:04.012Z,47.20
2017-06-14T23:28:36.812Z,47.20
2017-06-14T23:31:03.460Z,47.40
2017-06-14T23:33:30.264Z,47.60
2017-06-14T23:35:58.804Z,47.60
2017-06-14T23:38:25.368Z,47.80
2017-06-14T23:40:52.343Z,47.90
2017-06-14T23:43:18.708Z,48.00
2017-06-14T23:45:44.723Z,48.10
2017-06-14T23:48:11.436Z,48.20
2017-06-14T23:50:38.463Z,48.30
2017-06-14T23:53:04.513Z,48.70
2017-06-14T23:55:31.933Z,48.80
2017-06-14T23:57:58.411Z,48.80
